Wrightsville, GA

6:15 AM EST on February 09, 2016 (GMT -0500)
APRSWXNET | | Change Station
CLOSE
Current Station
Personal Weather Station
Location: Dublin, GA
Elevation: 298 ft
Nearby Weather Stations

Elev 298 ft 32.53 °N, 82.91 °W | Updated 37 minutes ago

Mostly Cloudy
Mostly Cloudy
33 °F
Feels Like 33 °F
N
0
Wind Variable Wind from WSW
Gusts 1.0 mph

Today
High -- | Low -- °F
--% Chance of Precip.
Yesterday
High -- | Low -- °F
Precip. -- in
Pressure 29.82 in
Visibility 10.0 miles
Clouds Overcast 6000 ft
Windchill 33 °F
Dew Point 25 °F
Humidity 71%
Rainfall in
Snow Depth Not available.
7:19 AM 6:10 PM
New Moon, 1% visible
METAR KOKZ 091055Z AUTO 26004KT 10SM OVC060 03/M03 A2982 RMK AO2 T00301030
Pressure 29.82 in
Visibility 10.0 miles
Clouds Overcast 6000 ft
Windchill 33 °F
Dew Point 25 °F
Humidity 71%
Rainfall in
Snow Depth Not available.
7:19 AM 6:10 PM
New Moon, 1% visible
METAR KOKZ 091055Z AUTO 26004KT 10SM OVC060 03/M03 A2982 RMK AO2 T00301030

10-Day Weather Forecast

Almanac

Astronomy

Feb. 09, 2016 Rise Set
Actual Time
Civil Twilight
Nautical Twilight
Astronomical Twilight
Moon
Length of Visible Light
Length of Day
Tomorrow will be .
, % of the Moon is Illuminated

Today's Extremes

State Highs State Lows

Community

WunderPhotos

Upload Photos

1,891,565 photos uploaded!

WunderBlog® & News

Nearby

Air Quality

  Air Quality AQ Index Pollutant
Not available.

Snow Depth

Station Depth Elevation

Earthquake Activity

City Distance Mag. Time & Date
Minimum magnitude displayed is 2.5.

Coastal Water Temperatures

Place Temperature

Stations

Nearby Weather Stations

Station Location Temp. Windchill Dew Point Humidity Wind Precip. Elev Updated Type
                   

Watches & Warnings

There are currently no watches in effect.